Time;durP1;ratioP1;P1;durP2;ratioP2;P2;SDS_P1;SDS_P2;PMS_P1;PMS_P2;Temp;Humidity;BMP_temperature;BMP_pressure;BME280_temperature;BME280_humidity;BME280_pressure;Samples;Min_cycle;Max_cycle;Signal;HPM_P1;HPM_P2
2022/12/20 00:02:09;;;;;;;8.45;6.25;;;8.50;99.90;;;;;;5088796;27;20055;-78
2022/12/20 00:04:35;;;;;;;10.93;5.28;;;8.40;99.90;;;;;;5104950;27;20059;-78
2022/12/20 00:07:01;;;;;;;8.48;5.45;;;8.40;99.90;;;;;;5092941;27;20063;-78
2022/12/20 00:09:27;;;;;;;8.95;5.35;;;8.30;99.90;;;;;;5127716;27;20973;-78
2022/12/20 00:11:52;;;;;;;9.07;5.47;;;8.30;99.90;;;;;;5108796;27;20131;-78
2022/12/20 00:14:18;;;;;;;6.68;5.05;;;8.30;99.90;;;;;;5109315;27;20039;-78
2022/12/20 00:16:44;;;;;;;7.75;5.45;;;8.30;99.90;;;;;;5111254;27;20047;-84
2022/12/20 00:19:11;;;;;;;7.88;5.35;;;8.20;99.90;;;;;;5107555;27;20120;-78
2022/12/20 00:21:37;;;;;;;8.18;5.10;;;8.30;99.90;;;;;;5124843;27;20047;-78
2022/12/20 00:24:04;;;;;;;7.53;5.97;;;8.30;99.90;;;;;;5103767;28;20044;-78
2022/12/20 00:26:32;;;;;;;6.93;4.75;;;8.30;99.90;;;;;;5104367;27;20051;-80
2022/12/20 00:28:59;;;;;;;8.13;5.10;;;8.30;99.90;;;;;;5120950;27;20047;-81
2022/12/20 00:31:27;;;;;;;9.90;5.25;;;8.40;99.90;;;;;;5126517;27;20176;-78
2022/12/20 00:33:54;;;;;;;6.22;4.80;;;8.50;99.90;;;;;;5128449;27;20084;-78
2022/12/20 00:36:21;;;;;;;8.35;5.32;;;8.60;99.90;;;;;;5125740;27;20474;-78
2022/12/20 00:38:48;;;;;;;7.03;5.03;;;8.60;99.90;;;;;;5128943;27;20099;-78
2022/12/20 00:41:17;;;;;;;8.13;4.85;;;8.60;99.90;;;;;;5124610;27;20514;-78
2022/12/20 00:43:43;;;;;;;6.35;5.00;;;8.60;99.90;;;;;;5119651;27;20054;-78
2022/12/20 00:46:10;;;;;;;6.63;4.53;;;8.70;99.90;;;;;;5090800;28;20051;-78
2022/12/20 00:48:36;;;;;;;6.15;4.80;;;8.60;99.90;;;;;;5113852;27;20477;-79
2022/12/20 00:51:05;;;;;;;10.82;4.97;;;8.70;99.90;;;;;;5117326;27;20043;-81
2022/12/20 00:53:32;;;;;;;6.18;4.90;;;8.70;99.90;;;;;;5124017;27;20050;-80
2022/12/20 00:55:58;;;;;;;6.97;4.50;;;8.70;99.90;;;;;;5127739;27;20067;-78
2022/12/20 00:58:25;;;;;;;8.13;4.80;;;8.70;99.90;;;;;;5124093;27;20052;-80
2022/12/20 01:00:51;;;;;;;9.05;5.05;;;8.70;99.90;;;;;;5113409;27;20458;-78
2022/12/20 01:03:16;;;;;;;5.97;4.35;;;8.70;99.90;;;;;;5120429;27;20134;-78
2022/12/20 01:05:53;;;;;;;8.38;5.03;;;8.80;99.90;;;;;;5111907;27;20130;-78
2022/12/20 01:08:20;;;;;;;9.07;4.60;;;8.70;99.90;;;;;;5106856;27;20504;-77
2022/12/20 01:10:46;;;;;;;5.38;3.60;;;8.80;99.90;;;;;;5111243;27;20047;-80
2022/12/20 01:13:12;;;;;;;6.95;4.38;;;8.80;99.90;;;;;;5108687;28;20043;-80
2022/12/20 01:15:38;;;;;;;7.43;4.53;;;8.70;99.90;;;;;;5120458;27;20040;-79
2022/12/20 01:18:03;;;;;;;8.23;4.15;;;8.80;99.90;;;;;;5112316;28;20138;-82
2022/12/20 01:20:29;;;;;;;5.60;3.85;;;8.70;99.90;;;;;;5108377;28;20466;-78
2022/12/20 01:22:55;;;;;;;6.15;3.65;;;8.80;99.90;;;;;;5114344;28;20077;-78
2022/12/20 01:25:20;;;;;;;7.55;4.40;;;8.80;99.90;;;;;;5108108;28;20047;-78
2022/12/20 01:27:46;;;;;;;6.93;4.15;;;8.80;99.90;;;;;;5100535;28;20471;-78
2022/12/20 01:30:12;;;;;;;5.97;4.20;;;8.70;99.90;;;;;;5100134;28;20366;-80
2022/12/20 01:32:37;;;;;;;5.68;4.05;;;8.80;99.90;;;;;;5110372;28;20051;-78
2022/12/20 01:35:03;;;;;;;5.18;3.85;;;8.70;99.90;;;;;;5112778;28;20086;-77
2022/12/20 01:37:30;;;;;;;5.38;3.88;;;8.80;99.90;;;;;;5110411;28;20051;-78
2022/12/20 01:39:56;;;;;;;6.75;4.68;;;8.80;99.90;;;;;;5112021;28;20393;-78
2022/12/20 01:42:21;;;;;;;8.38;4.57;;;8.90;99.90;;;;;;5124874;28;20039;-78
2022/12/20 01:44:57;;;;;;;5.03;4.03;;;8.80;99.90;;;;;;5101170;28;21058;-78
2022/12/20 01:47:25;;;;;;;9.07;4.30;;;8.80;99.90;;;;;;5115434;28;20117;-78
2022/12/20 01:49:55;;;;;;;6.45;3.88;;;8.80;99.90;;;;;;5126390;28;20304;-79
2022/12/20 01:52:33;;;;;;;9.10;4.53;;;8.80;99.90;;;;;;5114960;28;20043;-78
2022/12/20 01:55:07;;;;;;;7.75;3.97;;;8.80;99.90;;;;;;5124889;28;20079;-79
2022/12/20 01:57:39;;;;;;;6.40;4.32;;;8.80;99.90;;;;;;5116413;28;20047;-78
2022/12/20 02:00:07;;;;;;;6.85;4.28;;;8.80;99.90;;;;;;5125462;27;20041;-78
2022/12/20 02:02:33;;;;;;;7.97;4.45;;;8.80;99.90;;;;;;5110492;28;20126;-78
2022/12/20 02:04:59;;;;;;;10.82;3.78;;;8.80;99.90;;;;;;5115304;28;20138;-84
2022/12/20 02:07:28;;;;;;;4.80;3.60;;;8.80;99.90;;;;;;5108218;27;20035;-78
2022/12/20 02:09:56;;;;;;;8.23;4.22;;;8.80;99.90;;;;;;5117697;27;20422;-78
2022/12/20 02:12:28;;;;;;;6.00;4.20;;;8.90;99.90;;;;;;5140441;27;20396;-83
2022/12/20 02:15:03;;;;;;;6.50;4.25;;;8.90;99.90;;;;;;5144723;27;20057;-80
2022/12/20 02:17:43;;;;;;;8.07;4.50;;;8.90;99.90;;;;;;5134360;27;20050;-77
2022/12/20 02:20:35;;;;;;;8.48;4.22;;;9.00;99.90;;;;;;5136731;27;20043;-81
2022/12/20 02:23:41;;;;;;;8.10;4.15;;;9.00;99.90;;;;;;5114355;27;20077;-84
2022/12/20 02:26:13;;;;;;;7.25;3.90;;;9.00;99.90;;;;;;5134333;27;20456;-78
2022/12/20 02:28:44;;;;;;;4.22;3.80;;;9.00;99.90;;;;;;5132780;27;20083;-81
2022/12/20 02:31:16;;;;;;;6.80;4.30;;;9.00;99.90;;;;;;5110163;27;20045;-78
2022/12/20 02:33:44;;;;;;;6.60;4.15;;;9.00;99.90;;;;;;5135061;27;20099;-78
2022/12/20 02:36:10;;;;;;;6.53;3.92;;;9.00;99.90;;;;;;5111081;27;20058;-78
2022/12/20 02:38:37;;;;;;;5.30;4.05;;;9.00;99.90;;;;;;5134225;27;20047;-79
2022/12/20 02:41:18;;;;;;;7.95;4.10;;;9.00;99.90;;;;;;5097308;27;20031;-85
2022/12/20 02:46:33;;;;;;;6.35;4.15;;;8.90;99.90;;;;;;5146600;27;20043;-80
2022/12/20 02:49:03;;;;;;;5.82;3.88;;;8.90;99.90;;;;;;5127513;27;20051;-76
2022/12/20 02:51:32;;;;;;;6.53;4.20;;;8.80;99.90;;;;;;5125416;27;20042;-79
2022/12/20 02:53:58;;;;;;;8.05;4.20;;;8.80;99.90;;;;;;5132516;27;20043;-78
2022/12/20 02:56:50;;;;;;;6.88;4.32;;;8.80;99.90;;;;;;5078847;27;20351;-79
2022/12/20 02:59:27;;;;;;;7.93;4.10;;;8.80;99.90;;;;;;5109857;27;20050;-78
2022/12/20 03:01:54;;;;;;;10.75;5.13;;;8.80;99.90;;;;;;5131002;27;20403;-78
2022/12/20 03:04:25;;;;;;;6.72;4.65;;;8.70;99.90;;;;;;5099807;27;20047;-77
2022/12/20 03:07:02;;;;;;;8.60;5.47;;;8.70;99.90;;;;;;5112345;27;20055;-79
2022/12/20 03:09:30;;;;;;;9.75;5.65;;;8.70;99.90;;;;;;5132990;27;20666;-77
2022/12/20 03:11:56;;;;;;;10.77;6.05;;;8.70;99.90;;;;;;5115626;27;20487;-79
2022/12/20 03:14:22;;;;;;;9.70;6.28;;;8.70;99.90;;;;;;5133136;27;20049;-77
2022/12/20 03:16:48;;;;;;;10.73;6.00;;;8.70;99.90;;;;;;5113515;27;20043;-77
2022/12/20 03:19:13;;;;;;;13.20;6.90;;;8.60;99.90;;;;;;5131687;27;20058;-81
2022/12/20 03:21:39;;;;;;;10.65;7.10;;;8.70;99.90;;;;;;5114934;27;21295;-78
2022/12/20 03:24:05;;;;;;;12.57;6.93;;;8.60;99.90;;;;;;5133422;27;20043;-78
2022/12/20 03:26:31;;;;;;;10.07;6.43;;;8.60;99.90;;;;;;5131945;27;20050;-79
2022/12/20 03:28:56;;;;;;;13.88;7.15;;;8.60;99.90;;;;;;5111531;27;20057;-77
2022/12/20 03:31:22;;;;;;;11.25;6.68;;;8.60;99.90;;;;;;5115650;27;20107;-78
2022/12/20 03:33:48;;;;;;;12.73;6.95;;;8.50;99.90;;;;;;5134008;27;20061;-77
2022/12/20 03:36:14;;;;;;;10.25;6.88;;;8.50;99.90;;;;;;5097965;27;20208;-81
2022/12/20 03:38:39;;;;;;;10.57;7.13;;;8.60;99.90;;;;;;5128136;27;20043;-78
2022/12/20 03:41:05;;;;;;;11.10;7.22;;;8.60;99.90;;;;;;5111897;27;20042;-79
2022/12/20 03:43:31;;;;;;;10.45;7.13;;;8.50;99.90;;;;;;5115664;27;20113;-79
2022/12/20 03:45:56;;;;;;;9.63;6.70;;;8.60;99.90;;;;;;5116963;27;20054;-78
2022/12/20 03:48:23;;;;;;;15.00;7.85;;;8.50;99.90;;;;;;5586402;22;20048;-82
2022/12/20 03:50:49;;;;;;;11.38;6.50;;;8.50;99.90;;;;;;5044544;28;20069;-81
2022/12/20 03:53:15;;;;;;;9.20;6.78;;;8.60;99.90;;;;;;5047143;28;20040;-82
2022/12/20 03:55:40;;;;;;;9.70;6.75;;;8.60;99.90;;;;;;5034355;28;20128;-81
2022/12/20 03:58:06;;;;;;;10.20;6.63;;;8.60;99.90;;;;;;5049877;28;20132;-81
2022/12/20 04:00:32;;;;;;;8.32;6.20;;;8.60;99.90;;;;;;5044290;28;20119;-81
2022/12/20 04:02:58;;;;;;;8.85;6.40;;;8.60;99.90;;;;;;5050129;28;20041;-80
2022/12/20 04:05:23;;;;;;;15.32;6.93;;;8.60;99.90;;;;;;5043746;28;20049;-80
2022/12/20 04:07:49;;;;;;;11.02;6.95;;;8.70;99.90;;;;;;5050466;28;20052;-81
2022/12/20 04:10:15;;;;;;;11.65;6.88;;;8.60;99.90;;;;;;5049408;28;20045;-83
2022/12/20 04:12:40;;;;;;;11.77;6.85;;;8.60;99.90;;;;;;5048234;28;20040;-81
2022/12/20 04:15:07;;;;;;;12.65;7.18;;;8.60;99.90;;;;;;5049986;28;20115;-80
2022/12/20 04:17:32;;;;;;;10.23;6.68;;;8.50;99.90;;;;;;5042963;28;20049;-80
2022/12/20 04:20:17;;;;;;;11.55;6.65;;;8.60;99.90;;;;;;5044766;28;20129;-81
2022/12/20 04:22:47;;;;;;;9.10;6.25;;;8.60;99.90;;;;;;5043653;28;20056;-82
2022/12/20 04:25:15;;;;;;;12.35;7.45;;;8.70;99.90;;;;;;5021210;28;20095;-80
2022/12/20 04:27:40;;;;;;;12.75;7.30;;;8.80;99.90;;;;;;5049511;28;20052;-80
2022/12/20 04:30:08;;;;;;;11.45;6.90;;;8.80;99.90;;;;;;5029646;28;20490;-81
2022/12/20 04:32:34;;;;;;;9.25;6.93;;;8.80;99.90;;;;;;5030565;28;20056;-81
2022/12/20 04:35:00;;;;;;;9.73;7.18;;;8.90;99.90;;;;;;5027389;28;20383;-80
2022/12/20 04:37:26;;;;;;;10.32;7.07;;;8.80;99.90;;;;;;5044120;28;20056;-80
2022/12/20 04:39:51;;;;;;;11.38;7.60;;;8.80;99.90;;;;;;5023770;28;20097;-81
2022/12/20 04:42:17;;;;;;;11.63;6.95;;;8.80;99.90;;;;;;5045186;28;20053;-82
2022/12/20 04:44:43;;;;;;;13.15;7.10;;;8.80;99.90;;;;;;5048927;28;20049;-81
2022/12/20 04:47:09;;;;;;;12.93;7.88;;;8.80;99.90;;;;;;5011223;28;20049;-81
2022/12/20 04:49:35;;;;;;;11.50;7.53;;;8.80;99.90;;;;;;5049477;28;20087;-81
2022/12/20 04:53:46;;;;;;;10.73;7.22;;;8.80;99.90;;;;;;5050306;28;20064;-80
2022/12/20 04:54:47;;;;;;;10.80;6.78;;;8.90;99.90;;;;;;5048788;28;20049;-80
2022/12/20 04:57:13;;;;;;;12.35;7.28;;;9.00;99.90;;;;;;5048851;28;20083;-80
2022/12/20 04:59:39;;;;;;;10.32;6.78;;;9.00;99.90;;;;;;5048121;28;20052;-83
2022/12/20 05:02:04;;;;;;;9.23;6.60;;;9.00;99.90;;;;;;5044993;28;20098;-81
2022/12/20 05:04:31;;;;;;;10.30;7.03;;;9.00;99.90;;;;;;5043845;28;20099;-81
2022/12/20 05:06:57;;;;;;;10.32;6.70;;;9.10;99.90;;;;;;5029683;28;20072;-81
2022/12/20 05:09:22;;;;;;;8.93;6.65;;;9.10;99.90;;;;;;5044183;28;20056;-85
2022/12/20 05:11:48;;;;;;;10.40;6.60;;;9.10;99.90;;;;;;5029607;28;20047;-81
2022/12/20 05:14:14;;;;;;;8.45;6.32;;;9.10;99.90;;;;;;5045263;28;20419;-82
2022/12/20 05:16:39;;;;;;;7.80;6.28;;;9.10;99.90;;;;;;5010555;28;20060;-81
2022/12/20 05:19:06;;;;;;;8.10;5.82;;;9.20;99.90;;;;;;5043256;28;20049;-83
2022/12/20 05:27:00;;;;;;;9.95;5.95;;;9.20;99.90;;;;;;5048130;28;20091;-82
2022/12/20 05:29:25;;;;;;;8.10;5.60;;;9.20;99.90;;;;;;5027560;28;20088;-84
2022/12/20 05:31:51;;;;;;;8.23;5.10;;;9.30;99.90;;;;;;5031252;28;20052;-81
2022/12/20 05:34:17;;;;;;;9.77;5.80;;;9.30;99.90;;;;;;5041593;28;20044;-82
2022/12/20 05:36:43;;;;;;;8.05;6.03;;;9.30;99.90;;;;;;5042953;28;20041;-81
2022/12/20 05:39:10;;;;;;;7.60;5.10;;;9.30;99.90;;;;;;5039570;28;20045;-79
2022/12/20 05:41:36;;;;;;;6.03;5.03;;;9.30;99.90;;;;;;5057320;28;20494;-80
2022/12/20 05:44:02;;;;;;;10.30;5.60;;;9.30;99.90;;;;;;5046423;28;20543;-81
2022/12/20 05:46:28;;;;;;;9.63;5.15;;;9.30;99.90;;;;;;5044362;28;20072;-85
2022/12/20 05:48:54;;;;;;;8.50;4.78;;;9.30;99.90;;;;;;5017327;28;20099;-85
2022/12/20 05:51:19;;;;;;;6.45;5.18;;;9.30;99.90;;;;;;5043715;28;20048;-81
2022/12/20 05:53:45;;;;;;;8.80;5.38;;;9.30;99.90;;;;;;5031854;28;20049;-82
2022/12/20 05:56:11;;;;;;;8.77;4.70;;;9.40;99.90;;;;;;5003870;28;20068;-82
2022/12/20 05:58:37;;;;;;;6.03;4.70;;;9.40;99.90;;;;;;5043777;28;20497;-81
2022/12/20 06:01:05;;;;;;;7.47;4.65;;;9.40;99.90;;;;;;5043369;28;20060;-82
2022/12/20 06:03:31;;;;;;;12.50;4.90;;;9.20;99.90;;;;;;5033341;28;20052;-84
2022/12/20 06:05:57;;;;;;;8.60;4.80;;;9.30;99.90;;;;;;5047887;28;20071;-79
2022/12/20 06:08:23;;;;;;;5.72;4.45;;;9.40;99.90;;;;;;5041225;28;20041;-81
2022/12/20 06:10:49;;;;;;;6.32;4.45;;;9.20;99.90;;;;;;5037891;28;20558;-83
2022/12/20 06:13:15;;;;;;;7.55;4.40;;;9.30;99.90;;;;;;5055335;28;20123;-77
2022/12/20 06:15:41;;;;;;;6.35;4.45;;;9.20;99.90;;;;;;5050448;28;20110;-77
2022/12/20 06:18:06;;;;;;;6.10;4.40;;;9.30;99.90;;;;;;5037608;28;20096;-77
2022/12/20 06:20:34;;;;;;;8.80;4.93;;;9.30;99.90;;;;;;5051451;28;20099;-80
2022/12/20 06:23:00;;;;;;;8.70;4.90;;;9.30;99.90;;;;;;5033783;28;20053;-77
2022/12/20 06:25:27;;;;;;;6.47;4.45;;;9.30;99.90;;;;;;5042697;28;20041;-77
2022/12/20 06:27:53;;;;;;;7.65;4.38;;;9.40;99.90;;;;;;5027371;28;20290;-77
2022/12/20 06:30:19;;;;;;;8.68;5.07;;;9.40;99.90;;;;;;5016668;28;20506;-78
2022/12/20 06:32:45;;;;;;;8.25;4.38;;;9.40;99.90;;;;;;5030159;28;20053;-76
2022/12/20 06:35:11;;;;;;;7.03;4.35;;;9.40;99.90;;;;;;5032896;28;20592;-77
2022/12/20 06:37:39;;;;;;;7.22;4.78;;;9.40;99.90;;;;;;5046412;28;20428;-76
2022/12/20 06:40:09;;;;;;;5.90;4.22;;;9.50;99.90;;;;;;5033493;28;20047;-78
2022/12/20 06:42:34;;;;;;;7.97;4.47;;;9.40;99.90;;;;;;5045111;28;20038;-84
2022/12/20 06:45:00;;;;;;;8.60;5.00;;;9.50;99.90;;;;;;5035730;28;20045;-78
2022/12/20 06:47:32;;;;;;;7.20;5.03;;;9.50;99.90;;;;;;5003919;28;20126;-81
2022/12/20 06:49:58;;;;;;;7.72;5.32;;;9.60;99.90;;;;;;5018170;28;20823;-82
2022/12/20 06:52:23;;;;;;;10.25;6.15;;;9.50;99.90;;;;;;5025554;28;20053;-78
2022/12/20 06:54:49;;;;;;;9.70;6.00;;;9.50;99.90;;;;;;5048612;28;20054;-78
2022/12/20 06:57:15;;;;;;;11.63;6.68;;;9.60;99.90;;;;;;5032467;28;20060;-79
2022/12/20 06:59:41;;;;;;;10.65;7.53;;;9.60;99.90;;;;;;5049396;28;20054;-79
2022/12/20 07:02:08;;;;;;;10.35;7.72;;;9.60;99.90;;;;;;5034282;28;20041;-79
2022/12/20 07:04:34;;;;;;;11.20;7.72;;;9.60;99.90;;;;;;5049902;28;20045;-79
2022/12/20 07:07:00;;;;;;;9.85;7.22;;;9.60;99.90;;;;;;5049693;28;20509;-78
2022/12/20 07:09:25;;;;;;;13.82;8.13;;;9.60;99.90;;;;;;5046333;28;20045;-79
2022/12/20 07:11:51;;;;;;;13.38;8.32;;;9.60;99.90;;;;;;5029205;28;20449;-78
2022/12/20 07:14:16;;;;;;;13.65;8.35;;;9.60;99.90;;;;;;5041769;28;20576;-78
2022/12/20 07:16:42;;;;;;;12.85;8.93;;;9.60;99.90;;;;;;5049567;28;20068;-80
2022/12/20 07:19:13;;;;;;;14.18;9.00;;;9.60;99.90;;;;;;5029574;28;20064;-78
2022/12/20 07:21:39;;;;;;;12.32;9.15;;;9.60;99.90;;;;;;5046385;28;20355;-79
2022/12/20 07:24:05;;;;;;;11.77;8.55;;;9.60;99.90;;;;;;5044840;28;20053;-78
2022/12/20 07:26:31;;;;;;;12.70;9.52;;;9.60;99.90;;;;;;5029965;28;20632;-78
2022/12/20 07:28:57;;;;;;;14.05;9.23;;;9.60;99.90;;;;;;5037920;28;20124;-78
2022/12/20 07:31:22;;;;;;;14.00;9.63;;;9.60;99.90;;;;;;5047143;28;20132;-77
2022/12/20 07:33:48;;;;;;;14.10;9.43;;;9.70;99.90;;;;;;5029395;28;20046;-78
2022/12/20 07:36:14;;;;;;;15.38;9.93;;;9.70;99.90;;;;;;5043667;28;20574;-78
2022/12/20 07:38:40;;;;;;;13.25;9.52;;;9.70;99.90;;;;;;5040065;28;20049;-77
2022/12/20 07:41:15;;;;;;;14.95;9.73;;;9.70;99.90;;;;;;5050210;28;20045;-78
2022/12/20 07:43:41;;;;;;;15.68;9.07;;;9.70;99.90;;;;;;5049273;28;20048;-78
2022/12/20 07:46:11;;;;;;;13.93;9.20;;;9.70;99.90;;;;;;5033190;28;20057;-78
2022/12/20 07:48:37;;;;;;;18.23;9.38;;;9.70;99.90;;;;;;5052990;28;20114;-78
2022/12/20 07:51:13;;;;;;;12.88;9.10;;;9.70;99.90;;;;;;5052372;28;20048;-78
2022/12/20 07:53:44;;;;;;;11.95;8.40;;;9.70;99.90;;;;;;5036058;28;20486;-78
2022/12/20 07:56:11;;;;;;;15.15;9.80;;;9.70;99.90;;;;;;5034007;28;20501;-79
2022/12/20 07:58:39;;;;;;;15.65;9.60;;;9.70;99.90;;;;;;5032750;28;20057;-78
2022/12/20 08:01:06;;;;;;;15.35;9.10;;;9.80;99.90;;;;;;5062549;28;20680;-78
2022/12/20 08:03:38;;;;;;;14.00;8.88;;;9.80;99.90;;;;;;5034217;28;20057;-77
2022/12/20 08:06:06;;;;;;;12.98;8.82;;;9.80;99.90;;;;;;5040496;28;20044;-78
2022/12/20 08:08:47;;;;;;;13.93;9.25;;;9.80;99.90;;;;;;5039322;28;20497;-79
2022/12/20 08:11:14;;;;;;;13.60;8.32;;;9.80;99.90;;;;;;5053076;28;20052;-79
2022/12/20 08:13:40;;;;;;;13.93;8.55;;;9.80;99.90;;;;;;5066678;28;20486;-78
2022/12/20 08:16:06;;;;;;;10.32;7.95;;;9.80;99.90;;;;;;5060064;28;20605;-80
2022/12/20 08:18:34;;;;;;;11.30;7.38;;;9.80;99.90;;;;;;5051413;28;20199;-79
2022/12/20 08:21:00;;;;;;;11.00;6.93;;;9.70;99.90;;;;;;5034986;28;20496;-78
2022/12/20 08:23:28;;;;;;;9.45;7.30;;;9.80;99.90;;;;;;5056259;28;20532;-80
2022/12/20 08:25:58;;;;;;;12.13;7.13;;;9.80;99.90;;;;;;5018725;28;20131;-79
2022/12/20 08:28:30;;;;;;;10.27;6.93;;;9.80;99.90;;;;;;5038299;28;20466;-78
2022/12/20 08:31:00;;;;;;;9.77;6.40;;;9.90;99.90;;;;;;5050580;28;20091;-81
2022/12/20 08:33:26;;;;;;;9.52;6.82;;;9.90;99.90;;;;;;5047018;28;20487;-77
2022/12/20 08:36:13;;;;;;;8.15;5.50;;;9.80;99.90;;;;;;5042656;28;20178;-79
2022/12/20 08:38:41;;;;;;;9.38;5.35;;;9.80;99.90;;;;;;5023520;28;20565;-80
2022/12/20 08:41:13;;;;;;;6.97;5.20;;;9.80;99.90;;;;;;5033106;28;20044;-77
2022/12/20 08:43:40;;;;;;;12.70;5.70;;;9.80;99.90;;;;;;5033748;28;20140;-80
2022/12/20 08:46:10;;;;;;;10.50;5.57;;;9.80;99.90;;;;;;5048820;28;20048;-79
2022/12/20 08:48:39;;;;;;;9.50;5.20;;;9.80;99.90;;;;;;5040660;28;20529;-77
2022/12/20 08:51:09;;;;;;;9.05;4.70;;;9.80;99.90;;;;;;5048682;28;20049;-78
2022/12/20 08:53:36;;;;;;;8.13;4.75;;;9.70;99.90;;;;;;5043829;28;20052;-78
2022/12/20 08:56:13;;;;;;;9.35;4.82;;;9.70;99.90;;;;;;5040188;28;20052;-80
2022/12/20 08:58:46;;;;;;;6.03;4.53;;;9.80;99.90;;;;;;5035463;28;20048;-79
2022/12/20 09:01:14;;;;;;;8.82;5.25;;;9.70;99.90;;;;;;5044829;28;20049;-78
2022/12/20 09:03:41;;;;;;;7.75;4.70;;;9.70;99.90;;;;;;5064852;28;20045;-78
2022/12/20 09:06:12;;;;;;;7.28;4.10;;;9.70;99.90;;;;;;5024131;28;20098;-79
2022/12/20 09:08:39;;;;;;;8.18;4.20;;;9.70;99.90;;;;;;5041546;28;20482;-81
2022/12/20 09:11:17;;;;;;;8.88;4.70;;;9.70;99.90;;;;;;5041842;28;20389;-78
2022/12/20 09:13:48;;;;;;;9.80;4.65;;;9.70;99.90;;;;;;5050230;28;20090;-79
2022/12/20 09:16:21;;;;;;;7.85;5.30;;;9.70;99.90;;;;;;5050882;28;20676;-81
2022/12/20 09:18:51;;;;;;;6.32;4.55;;;9.70;99.90;;;;;;5067871;28;20048;-78
2022/12/20 09:21:24;;;;;;;7.80;4.00;;;9.70;99.90;;;;;;5050436;28;20048;-79
2022/12/20 09:23:51;;;;;;;7.20;4.00;;;9.70;99.90;;;;;;5063432;28;20495;-78
2022/12/20 09:26:23;;;;;;;8.07;4.28;;;9.70;99.90;;;;;;5021814;28;20505;-79
2022/12/20 09:28:52;;;;;;;6.18;4.15;;;9.70;99.90;;;;;;5062676;28;20064;-78
2022/12/20 09:31:25;;;;;;;6.65;4.10;;;9.70;99.90;;;;;;5050258;28;20557;-78
2022/12/20 09:33:58;;;;;;;6.13;3.80;;;9.70;99.90;;;;;;5038750;28;20045;-78
2022/12/20 09:36:26;;;;;;;6.20;4.15;;;9.80;99.90;;;;;;5049145;28;20052;-80
2022/12/20 09:38:58;;;;;;;5.68;4.07;;;9.80;99.90;;;;;;5049154;28;20072;-80
2022/12/20 09:41:37;;;;;;;9.90;4.10;;;9.80;99.90;;;;;;5032718;28;20114;-79
2022/12/20 09:44:30;;;;;;;9.27;4.22;;;9.80;99.90;;;;;;5042911;28;20440;-78
2022/12/20 09:47:11;;;;;;;5.80;3.80;;;9.80;99.90;;;;;;5023759;28;20053;-80
2022/12/20 09:49:42;;;;;;;5.35;3.88;;;9.80;99.90;;;;;;5068349;28;20163;-78
2022/12/20 09:52:43;;;;;;;7.53;4.10;;;9.80;99.90;;;;;;5050486;28;20151;-78
2022/12/20 09:55:23;;;;;;;6.45;3.58;;;9.80;99.90;;;;;;5041191;28;20052;-80
2022/12/20 09:58:28;;;;;;;5.70;4.05;;;9.80;99.90;;;;;;5044482;28;20072;-78
2022/12/20 10:00:54;;;;;;;7.03;4.10;;;9.80;99.90;;;;;;5043625;28;20049;-79
2022/12/20 10:03:36;;;;;;;7.43;3.92;;;9.80;99.90;;;;;;5042446;28;20059;-77
2022/12/20 10:06:39;;;;;;;6.25;4.05;;;9.80;99.90;;;;;;5038887;28;20075;-83
2022/12/20 10:09:31;;;;;;;5.72;3.90;;;9.80;99.90;;;;;;5049844;28;20045;-79
2022/12/20 10:12:22;;;;;;;7.00;4.53;;;9.70;99.90;;;;;;5050337;28;20045;-78
2022/12/20 10:15:23;;;;;;;8.38;4.30;;;9.70;99.90;;;;;;5033990;28;20561;-79
2022/12/20 10:18:12;;;;;;;6.00;4.28;;;9.80;99.90;;;;;;5033655;28;20060;-78
2022/12/20 10:20:48;;;;;;;5.63;4.55;;;9.70;99.90;;;;;;5022679;28;20106;-78
2022/12/20 10:23:32;;;;;;;7.25;4.60;;;9.70;99.90;;;;;;5037126;28;20124;-78
2022/12/20 10:25:58;;;;;;;6.10;4.20;;;9.70;99.90;;;;;;5050929;28;20050;-78
2022/12/20 10:28:30;;;;;;;7.95;4.55;;;9.70;99.90;;;;;;5030169;28;20129;-77
2022/12/20 10:31:13;;;;;;;9.23;5.47;;;9.80;99.90;;;;;;5063886;28;20098;-77
2022/12/20 10:33:39;;;;;;;6.90;4.78;;;9.80;99.90;;;;;;5054050;28;20482;-77
2022/12/20 10:36:41;;;;;;;6.40;4.80;;;9.70;99.90;;;;;;5054002;28;20167;-82
2022/12/20 10:39:08;;;;;;;8.20;5.05;;;9.70;99.90;;;;;;4986440;28;20054;-82
2022/12/20 10:41:43;;;;;;;12.02;6.53;;;9.70;99.90;;;;;;5041860;28;20395;-79
2022/12/20 10:44:15;;;;;;;7.22;5.10;;;9.80;99.90;;;;;;5051376;28;20052;-77
2022/12/20 10:46:44;;;;;;;7.35;4.72;;;9.80;99.90;;;;;;5054314;28;20541;-77
2022/12/20 10:49:25;;;;;;;8.85;5.18;;;9.80;99.90;;;;;;5034453;28;20060;-80
2022/12/20 10:51:52;;;;;;;7.10;5.05;;;9.80;99.90;;;;;;5053838;28;20052;-77
2022/12/20 10:54:35;;;;;;;9.65;5.18;;;9.80;99.90;;;;;;5052767;28;20049;-77
2022/12/20 10:57:13;;;;;;;10.20;5.03;;;9.80;99.90;;;;;;5036427;28;20052;-77
2022/12/20 10:59:43;;;;;;;11.20;5.50;;;9.90;99.90;;;;;;5037336;28;20634;-77
2022/12/20 11:02:33;;;;;;;10.10;4.85;;;9.90;99.90;;;;;;5052760;28;20064;-80
2022/12/20 11:05:11;;;;;;;9.73;5.63;;;9.90;99.90;;;;;;5053661;28;20052;-78
2022/12/20 11:07:58;;;;;;;11.32;5.38;;;9.80;99.90;;;;;;5025629;28;20057;-77
2022/12/20 11:10:27;;;;;;;8.13;5.38;;;9.90;99.90;;;;;;5052572;28;20518;-81
2022/12/20 11:12:57;;;;;;;8.05;5.25;;;9.90;99.90;;;;;;5033815;28;20049;-79
2022/12/20 11:15:27;;;;;;;7.35;5.53;;;9.90;99.90;;;;;;5052643;28;20421;-77
2022/12/20 11:18:05;;;;;;;7.13;5.10;;;9.90;99.90;;;;;;5053235;28;20485;-84
2022/12/20 11:20:35;;;;;;;8.98;5.80;;;9.90;99.90;;;;;;5050616;28;20148;-77
2022/12/20 11:23:28;;;;;;;8.13;6.03;;;10.00;99.90;;;;;;5037133;28;20491;-79
2022/12/20 11:26:25;;;;;;;9.82;5.95;;;10.00;99.90;;;;;;5041596;28;20056;-78
2022/12/20 11:29:21;;;;;;;7.45;5.80;;;10.10;99.90;;;;;;5053594;28;20052;-78
2022/12/20 11:32:25;;;;;;;6.47;5.47;;;10.10;99.90;;;;;;5066719;28;20049;-77
2022/12/20 11:35:02;;;;;;;8.07;4.85;;;10.10;99.90;;;;;;5031368;28;20053;-77
2022/12/20 11:37:35;;;;;;;8.07;5.30;;;10.10;99.90;;;;;;5051865;28;20040;-77
2022/12/20 11:40:26;;;;;;;11.10;5.57;;;10.10;99.90;;;;;;5036335;28;20477;-78
2022/12/20 11:43:13;;;;;;;10.98;5.80;;;10.10;99.90;;;;;;5051692;28;20060;-77
2022/12/20 11:45:50;;;;;;;6.22;5.28;;;10.10;99.90;;;;;;5049479;28;20091;-78
2022/12/20 11:48:39;;;;;;;6.95;5.25;;;10.10;99.90;;;;;;5052941;28;20044;-82
2022/12/20 11:51:42;;;;;;;7.97;5.18;;;10.10;99.90;;;;;;5044796;28;20494;-77
2022/12/20 11:54:31;;;;;;;8.63;5.15;;;10.10;99.90;;;;;;5041767;28;20053;-77
2022/12/20 11:57:04;;;;;;;12.70;5.47;;;10.10;99.90;;;;;;5052206;28;20554;-77
2022/12/20 11:59:58;;;;;;;9.77;5.05;;;10.10;99.90;;;;;;5069601;28;20044;-78
2022/12/20 12:02:48;;;;;;;9.65;5.50;;;10.10;99.90;;;;;;5051052;28;20064;-81
2022/12/20 12:05:36;;;;;;;6.00;4.57;;;10.10;99.90;;;;;;5051672;28;20190;-78
2022/12/20 12:08:09;;;;;;;8.85;4.97;;;10.10;99.90;;;;;;5052691;28;20435;-80
2022/12/20 12:10:38;;;;;;;8.73;5.05;;;10.10;99.90;;;;;;5051977;28;20125;-78
2022/12/20 12:13:17;;;;;;;6.07;4.32;;;10.10;99.90;;;;;;5051005;28;20135;-80
2022/12/20 12:16:02;;;;;;;8.15;4.90;;;10.10;99.90;;;;;;5052295;28;20063;-79
2022/12/20 12:18:31;;;;;;;7.18;4.78;;;10.10;99.90;;;;;;5050676;28;20044;-77
2022/12/20 12:21:12;;;;;;;6.60;5.20;;;10.10;99.90;;;;;;5051324;28;20095;-78
2022/12/20 12:24:22;;;;;;;32.35;7.13;;;10.10;99.90;;;;;;5040328;28;20075;-77
2022/12/20 12:26:48;;;;;;;9.73;6.15;;;10.10;99.90;;;;;;5006969;28;20076;-77
2022/12/20 12:29:16;;;;;;;6.90;6.00;;;10.10;99.90;;;;;;5051222;28;20095;-78
2022/12/20 12:31:47;;;;;;;10.73;6.95;;;10.20;99.90;;;;;;5051191;28;20048;-78
2022/12/20 12:34:31;;;;;;;11.50;6.47;;;10.20;99.90;;;;;;5049771;28;20067;-77
2022/12/20 12:37:15;;;;;;;14.63;7.95;;;10.10;99.90;;;;;;5042714;28;20051;-77
2022/12/20 12:40:09;;;;;;;24.67;9.18;;;10.20;99.90;;;;;;5050592;28;20106;-77
2022/12/20 12:42:53;;;;;;;11.50;7.45;;;10.20;99.90;;;;;;5050252;28;20481;-77
2022/12/20 12:45:27;;;;;;;10.25;7.78;;;10.10;99.90;;;;;;5049960;28;20071;-78
2022/12/20 12:47:56;;;;;;;14.07;8.38;;;10.20;99.90;;;;;;5034608;28;20132;-78
2022/12/20 12:50:31;;;;;;;21.33;10.00;;;10.10;99.90;;;;;;5050596;28;20469;-78
2022/12/20 12:53:06;;;;;;;13.38;9.07;;;10.20;99.90;;;;;;5050685;28;20059;-78
2022/12/20 12:55:40;;;;;;;13.02;9.40;;;10.20;99.90;;;;;;5052176;28;20052;-78
2022/12/20 12:58:23;;;;;;;11.63;8.38;;;10.20;99.90;;;;;;5044053;28;20417;-78
2022/12/20 13:01:07;;;;;;;12.45;8.40;;;10.20;99.90;;;;;;5050569;28;20044;-79
2022/12/20 13:03:55;;;;;;;13.40;9.57;;;10.20;99.90;;;;;;5033569;28;20395;-80
2022/12/20 13:06:27;;;;;;;11.70;9.55;;;10.20;99.90;;;;;;5050721;28;20090;-78
2022/12/20 13:08:59;;;;;;;13.25;10.35;;;10.20;99.90;;;;;;5049980;28;20070;-78
2022/12/20 13:11:29;;;;;;;12.65;9.60;;;10.20;99.90;;;;;;5034613;28;20139;-78
2022/12/20 13:14:20;;;;;;;16.00;10.63;;;10.20;99.90;;;;;;5038840;28;20044;-78
2022/12/20 13:16:47;;;;;;;15.63;11.00;;;10.20;99.90;;;;;;5033108;28;20048;-79
2022/12/20 13:19:25;;;;;;;15.43;10.70;;;10.10;99.90;;;;;;5040470;28;20041;-79
2022/12/20 13:22:18;;;;;;;14.07;10.98;;;10.10;99.90;;;;;;5033658;28;20795;-78